Time;durP1;ratioP1;P1;durP2;ratioP2;P2;SDS_P1;SDS_P2;PMS_P1;PMS_P2;Temp;Humidity;BMP_temperature;BMP_pressure;BME280_temperature;BME280_humidity;BME280_pressure;Samples;Min_cycle;Max_cycle;Signal;HPM_P1;HPM_P2
2021/06/02 00:01:56;;;;;;;2.97;1.30;;;;;;;;;;5030125;28;20059;-68
2021/06/02 00:04:23;;;;;;;2.73;1.30;;;;;;;;;;5012924;28;20022;-67
2021/06/02 00:06:49;;;;;;;3.70;1.50;;;;;;;;;;4998520;28;20463;-67
2021/06/02 00:09:15;;;;;;;3.60;1.37;;;;;;;;;;5008374;28;20164;-67
2021/06/02 00:11:41;;;;;;;3.00;1.50;;;;;;;;;;5002468;28;20030;-67
2021/06/02 00:14:06;;;;;;;3.70;1.53;;;;;;;;;;5003933;28;20034;-67
2021/06/02 00:16:32;;;;;;;3.23;1.37;;;;;;;;;;5005597;28;20029;-67
2021/06/02 00:18:57;;;;;;;6.27;1.53;;;;;;;;;;5008783;28;20045;-67
2021/06/02 00:21:22;;;;;;;4.07;1.30;;;;;;;;;;5004914;28;20484;-67
2021/06/02 00:23:48;;;;;;;4.07;1.43;;;;;;;;;;5005752;28;20036;-67
2021/06/02 00:26:13;;;;;;;4.07;1.33;;;;;;;;;;5010384;28;20108;-67
2021/06/02 00:28:39;;;;;;;3.17;1.20;;;;;;;;;;5004370;28;20122;-67
2021/06/02 00:31:05;;;;;;;2.70;1.20;;;;;;;;;;5001628;28;20080;-67
2021/06/02 00:33:31;;;;;;;3.10;1.33;;;;;;;;;;5009170;28;20101;-67
2021/06/02 00:35:58;;;;;;;3.20;1.30;;;;;;;;;;5022657;28;20483;-67
2021/06/02 00:38:23;;;;;;;3.10;1.37;;;;;;;;;;5004482;28;20031;-67
2021/06/02 00:40:50;;;;;;;3.03;1.30;;;;;;;;;;5001691;28;20040;-67
2021/06/02 00:43:18;;;;;;;3.70;1.40;;;;;;;;;;5006939;28;20030;-67
2021/06/02 00:45:44;;;;;;;3.07;1.20;;;;;;;;;;5010992;28;20104;-67
2021/06/02 00:48:12;;;;;;;5.20;1.50;;;;;;;;;;5010922;28;20053;-67
2021/06/02 00:50:39;;;;;;;3.30;1.20;;;;;;;;;;5008362;28;20382;-67
2021/06/02 00:53:07;;;;;;;2.57;1.10;;;;;;;;;;4999066;28;20073;-67
2021/06/02 00:55:32;;;;;;;2.80;1.13;;;;;;;;;;5009008;28;20033;-67
2021/06/02 00:57:57;;;;;;;2.73;1.10;;;;;;;;;;5009172;28;20471;-67
2021/06/02 01:00:23;;;;;;;2.60;1.17;;;;;;;;;;5012191;28;20356;-67
2021/06/02 01:02:51;;;;;;;4.07;1.30;;;;;;;;;;5012708;28;20053;-67
2021/06/02 01:05:17;;;;;;;4.60;1.57;;;;;;;;;;5010356;28;20038;-67
2021/06/02 01:07:43;;;;;;;3.37;1.10;;;;;;;;;;5010564;28;20034;-67
2021/06/02 01:10:09;;;;;;;3.40;1.30;;;;;;;;;;5010306;28;20022;-67
2021/06/02 01:12:34;;;;;;;3.37;1.40;;;;;;;;;;5010444;28;20189;-67
2021/06/02 01:15:00;;;;;;;2.57;1.13;;;;;;;;;;5010044;28;20025;-67
2021/06/02 01:17:26;;;;;;;3.50;1.40;;;;;;;;;;5010229;28;20034;-67
2021/06/02 01:19:52;;;;;;;2.83;1.13;;;;;;;;;;5010507;28;20022;-67
2021/06/02 01:22:17;;;;;;;3.90;1.30;;;;;;;;;;5010493;28;20085;-67
2021/06/02 01:24:43;;;;;;;2.70;1.20;;;;;;;;;;5008753;28;20435;-67
2021/06/02 01:27:09;;;;;;;7.70;1.43;;;;;;;;;;5014397;28;20448;-67
2021/06/02 01:29:37;;;;;;;5.07;1.53;;;;;;;;;;5010683;28;20109;-67
2021/06/02 01:32:11;;;;;;;3.40;1.40;;;;;;;;;;5010227;28;20026;-67
2021/06/02 01:34:56;;;;;;;2.83;1.30;;;;;;;;;;5008616;28;20105;-67
2021/06/02 01:37:54;;;;;;;3.93;1.23;;;;;;;;;;5011324;28;20104;-67
2021/06/02 01:40:38;;;;;;;2.70;1.20;;;;;;;;;;4973842;28;20034;-67
2021/06/02 01:43:35;;;;;;;6.90;1.50;;;;;;;;;;5011729;28;20028;-67
2021/06/02 01:46:24;;;;;;;3.20;1.30;;;;;;;;;;4931247;29;20043;-67
2021/06/02 01:49:07;;;;;;;3.20;1.20;;;;;;;;;;4854394;29;20098;-67
2021/06/02 01:51:42;;;;;;;3.03;1.30;;;;;;;;;;4836875;29;20048;-67
2021/06/02 01:54:40;;;;;;;3.53;1.20;;;;;;;;;;4851647;29;20034;-67
2021/06/02 01:57:26;;;;;;;3.73;1.30;;;;;;;;;;4817706;29;20839;-67
2021/06/02 02:00:02;;;;;;;5.13;1.40;;;;;;;;;;4786005;29;20085;-67
2021/06/02 02:02:44;;;;;;;3.87;1.60;;;;;;;;;;4800023;29;20057;-67
2021/06/02 02:05:31;;;;;;;3.15;1.55;;;;;;;;;;4801256;29;20038;-67
2021/06/02 02:08:14;;;;;;;5.10;1.50;;;;;;;;;;4812958;29;20038;-67
2021/06/02 02:10:45;;;;;;;2.80;1.40;;;;;;;;;;4814547;29;20446;-67
2021/06/02 02:13:29;;;;;;;3.07;1.50;;;;;;;;;;4806607;29;20031;-67
2021/06/02 02:16:17;;;;;;;5.00;1.73;;;;;;;;;;4815121;29;20038;-67
2021/06/02 02:18:46;;;;;;;4.00;1.47;;;;;;;;;;4804164;29;20039;-67
2021/06/02 02:21:20;;;;;;;3.17;1.33;;;;;;;;;;4820571;29;20038;-67
2021/06/02 02:24:08;;;;;;;2.60;1.23;;;;;;;;;;4922098;29;20152;-67
2021/06/02 02:26:51;;;;;;;3.57;1.40;;;;;;;;;;4926942;29;20028;-67
2021/06/02 02:29:55;;;;;;;3.97;1.48;;;;;;;;;;4933026;29;20078;-67
2021/06/02 02:32:58;;;;;;;3.03;1.23;;;;;;;;;;4893975;29;20040;-67
2021/06/02 02:35:35;;;;;;;5.47;1.50;;;;;;;;;;4839241;29;20133;-67
2021/06/02 02:38:24;;;;;;;4.60;1.60;;;;;;;;;;4841433;29;20063;-67
2021/06/02 02:41:15;;;;;;;4.77;1.60;;;;;;;;;;4844959;29;20056;-67
2021/06/02 02:44:13;;;;;;;2.57;1.20;;;;;;;;;;4808382;29;20049;-67
2021/06/02 02:46:54;;;;;;;3.20;1.40;;;;;;;;;;4820298;29;20035;-67
2021/06/02 02:49:22;;;;;;;3.77;1.60;;;;;;;;;;4810848;29;20038;-66
2021/06/02 02:52:05;;;;;;;2.83;1.40;;;;;;;;;;4823244;29;20539;-67
2021/06/02 02:55:00;;;;;;;5.73;1.60;;;;;;;;;;4818748;29;20030;-67
2021/06/02 02:57:46;;;;;;;3.33;1.53;;;;;;;;;;4819793;29;20045;-67
2021/06/02 03:00:19;;;;;;;4.90;1.60;;;;;;;;;;4835914;29;20041;-67
2021/06/02 03:02:57;;;;;;;2.63;1.30;;;;;;;;;;4838206;29;20050;-67
2021/06/02 03:05:29;;;;;;;3.70;1.63;;;;;;;;;;4866671;29;20519;-67
2021/06/02 03:08:11;;;;;;;3.73;1.60;;;;;;;;;;4874471;29;20033;-67
2021/06/02 03:10:40;;;;;;;3.00;1.27;;;;;;;;;;4875276;29;20479;-67
2021/06/02 03:13:12;;;;;;;2.90;1.20;;;;;;;;;;4869576;29;20431;-67
2021/06/02 03:15:50;;;;;;;4.90;2.10;;;;;;;;;;4869341;29;20024;-67
2021/06/02 03:18:39;;;;;;;3.43;1.50;;;;;;;;;;4875234;29;20494;-67
2021/06/02 03:21:39;;;;;;;3.73;1.67;;;;;;;;;;4920907;28;20050;-67
2021/06/02 03:24:31;;;;;;;3.30;1.33;;;;;;;;;;4885342;29;20059;-67
2021/06/02 03:27:10;;;;;;;5.07;2.03;;;;;;;;;;4822025;29;20039;-67
2021/06/02 03:30:07;;;;;;;5.77;1.60;;;;;;;;;;4824220;29;20383;-67
2021/06/02 03:32:51;;;;;;;4.67;1.57;;;;;;;;;;4801804;29;20604;-67
2021/06/02 03:35:19;;;;;;;6.10;1.73;;;;;;;;;;4814247;29;20034;-67
2021/06/02 03:37:57;;;;;;;10.60;1.90;;;;;;;;;;4861769;29;20032;-67
2021/06/02 03:40:48;;;;;;;3.77;1.70;;;;;;;;;;4880312;29;20029;-67
2021/06/02 03:43:34;;;;;;;3.60;1.70;;;;;;;;;;4874568;29;20510;-67
2021/06/02 03:46:22;;;;;;;3.50;1.70;;;;;;;;;;4873302;29;20107;-67
2021/06/02 03:49:08;;;;;;;3.83;1.43;;;;;;;;;;4853780;29;20709;-67
2021/06/02 03:51:45;;;;;;;3.97;1.50;;;;;;;;;;4806930;29;20255;-67
2021/06/02 03:54:40;;;;;;;4.10;1.63;;;;;;;;;;4798596;29;20133;-67
2021/06/02 03:57:12;;;;;;;4.20;1.83;;;;;;;;;;4775764;29;20577;-67
2021/06/02 03:59:56;;;;;;;5.33;1.70;;;;;;;;;;4817088;29;20011;-67
2021/06/02 04:02:44;;;;;;;4.20;1.90;;;;;;;;;;4829299;29;20057;-67
2021/06/02 04:05:24;;;;;;;7.20;2.57;;;;;;;;;;4847521;29;20596;-67
2021/06/02 04:07:54;;;;;;;3.97;1.73;;;;;;;;;;4844110;29;20038;-68
2021/06/02 04:10:43;;;;;;;3.70;1.63;;;;;;;;;;4845321;29;20352;-69
2021/06/02 04:13:28;;;;;;;5.37;1.50;;;;;;;;;;4845304;29;20041;-69
2021/06/02 04:15:58;;;;;;;3.00;1.37;;;;;;;;;;4845189;29;20034;-70
2021/06/02 04:18:24;;;;;;;4.43;1.50;;;;;;;;;;4846003;29;20029;-70
2021/06/02 04:20:50;;;;;;;4.87;1.80;;;;;;;;;;4839408;29;20383;-70
2021/06/02 04:23:16;;;;;;;4.57;1.77;;;;;;;;;;4851492;29;20045;-69
2021/06/02 04:25:43;;;;;;;7.47;2.10;;;;;;;;;;4855562;29;20505;-69
2021/06/02 04:28:11;;;;;;;4.57;1.83;;;;;;;;;;4911265;29;20036;-70
2021/06/02 04:30:37;;;;;;;4.33;1.90;;;;;;;;;;4914285;29;20049;-69
2021/06/02 04:33:03;;;;;;;3.47;1.70;;;;;;;;;;4923901;29;20031;-69
2021/06/02 04:35:30;;;;;;;4.43;1.60;;;;;;;;;;4949729;28;20031;-69
2021/06/02 04:37:56;;;;;;;6.73;1.90;;;;;;;;;;4958476;28;20031;-70
2021/06/02 04:40:22;;;;;;;5.10;1.90;;;;;;;;;;5032321;28;20096;-69
2021/06/02 04:42:50;;;;;;;3.93;1.80;;;;;;;;;;5030433;28;20124;-70
2021/06/02 04:45:26;;;;;;;7.87;2.27;;;;;;;;;;5027835;28;20029;-69
2021/06/02 04:47:51;;;;;;;4.13;1.70;;;;;;;;;;5026436;28;20018;-69
2021/06/02 04:50:28;;;;;;;4.13;2.00;;;;;;;;;;5026770;28;20025;-69
2021/06/02 04:53:12;;;;;;;4.77;2.30;;;;;;;;;;5023359;28;20061;-70
2021/06/02 04:55:56;;;;;;;6.30;2.33;;;;;;;;;;5022171;28;20390;-69
2021/06/02 04:58:34;;;;;;;3.13;1.70;;;;;;;;;;5018992;28;20480;-70
2021/06/02 05:01:38;;;;;;;5.23;1.83;;;;;;;;;;5022347;28;20017;-70
2021/06/02 05:04:22;;;;;;;4.07;2.10;;;;;;;;;;4952287;28;20066;-70
2021/06/02 05:07:07;;;;;;;3.70;1.80;;;;;;;;;;4946429;28;20214;-70
2021/06/02 05:09:58;;;;;;;5.03;2.07;;;;;;;;;;4954283;28;20035;-70
2021/06/02 05:12:47;;;;;;;4.90;1.77;;;;;;;;;;4905160;29;20160;-70
2021/06/02 05:15:32;;;;;;;4.20;2.27;;;;;;;;;;4862844;29;20042;-70
2021/06/02 05:18:27;;;;;;;4.83;2.03;;;;;;;;;;4818748;29;20099;-70
2021/06/02 05:24:15;;;;;;;6.20;1.63;;;;;;;;;;4832648;29;20048;-71
2021/06/02 05:27:03;;;;;;;3.80;1.83;;;;;;;;;;4824081;29;20045;-71
2021/06/02 05:29:49;;;;;;;4.67;1.93;;;;;;;;;;4817264;29;20639;-71
2021/06/02 05:32:37;;;;;;;3.40;1.73;;;;;;;;;;4819256;29;20392;-71
2021/06/02 05:35:22;;;;;;;4.10;1.77;;;;;;;;;;4822176;29;20045;-71
2021/06/02 05:38:20;;;;;;;7.30;2.30;;;;;;;;;;4808393;29;20043;-71
2021/06/02 05:40:48;;;;;;;7.17;2.10;;;;;;;;;;4791393;29;20049;-71
2021/06/02 05:43:36;;;;;;;3.53;1.63;;;;;;;;;;4819578;29;20424;-72
2021/06/02 05:46:24;;;;;;;4.17;1.80;;;;;;;;;;4801838;29;20045;-72
2021/06/02 05:49:08;;;;;;;4.27;2.10;;;;;;;;;;4822808;29;20044;-73
2021/06/02 05:51:54;;;;;;;5.87;1.93;;;;;;;;;;4853659;29;20517;-72
2021/06/02 05:54:38;;;;;;;5.33;1.80;;;;;;;;;;4891619;29;20067;-73
2021/06/02 05:57:14;;;;;;;6.13;2.10;;;;;;;;;;4881149;29;20094;-72
2021/06/02 06:00:05;;;;;;;5.03;1.80;;;;;;;;;;4884732;29;20092;-73
2021/06/02 06:02:50;;;;;;;3.93;1.80;;;;;;;;;;4895919;29;20067;-73
2021/06/02 06:05:19;;;;;;;5.23;1.73;;;;;;;;;;4909432;29;20733;-73
2021/06/02 06:08:07;;;;;;;4.57;1.70;;;;;;;;;;4906666;29;20495;-73
2021/06/02 06:10:51;;;;;;;3.58;1.70;;;;;;;;;;4894455;29;20101;-73
2021/06/02 06:13:25;;;;;;;3.53;1.70;;;;;;;;;;4910031;29;20033;-73
2021/06/02 06:16:26;;;;;;;4.78;2.00;;;;;;;;;;4913888;29;20032;-74
2021/06/02 06:19:10;;;;;;;4.68;2.20;;;;;;;;;;4870432;29;20045;-74
2021/06/02 06:22:13;;;;;;;5.30;1.70;;;;;;;;;;4874796;29;20033;-73
2021/06/02 06:24:59;;;;;;;4.70;1.92;;;;;;;;;;4907363;29;20090;-74
2021/06/02 06:27:32;;;;;;;3.45;1.63;;;;;;;;;;4913589;29;20028;-73
2021/06/02 06:30:09;;;;;;;7.50;1.65;;;;;;;;;;4923667;29;20024;-73
2021/06/02 06:32:35;;;;;;;5.75;2.10;;;;;;;;;;4938456;29;20067;-73
2021/06/02 06:35:02;;;;;;;3.70;1.70;;;;;;;;;;4931821;29;20078;-72
2021/06/02 06:37:31;;;;;;;4.00;1.70;;;;;;;;;;4934240;29;20055;-73
2021/06/02 06:39:58;;;;;;;4.25;1.70;;;;;;;;;;4932144;29;20016;-73
2021/06/02 06:42:26;;;;;;;3.53;1.60;;;;;;;;;;4931960;29;20032;-75
2021/06/02 06:44:54;;;;;;;4.20;1.60;;;;;;;;;;4932510;29;20456;-74
2021/06/02 06:47:20;;;;;;;5.78;1.55;;;;;;;;;;4932271;29;20040;-73
2021/06/02 06:49:48;;;;;;;3.92;1.63;;;;;;;;;;4932286;29;20031;-74
2021/06/02 06:52:14;;;;;;;5.30;1.85;;;;;;;;;;4931688;29;20520;-74
2021/06/02 06:54:40;;;;;;;5.95;2.00;;;;;;;;;;4957204;28;20041;-74
2021/06/02 06:57:06;;;;;;;5.68;1.77;;;;;;;;;;5024486;28;20017;-74
2021/06/02 06:59:33;;;;;;;3.10;1.55;;;;;;;;;;5028245;28;20048;-74
2021/06/02 07:01:58;;;;;;;6.55;1.70;;;;;;;;;;5024580;28;20026;-74
2021/06/02 07:04:24;;;;;;;3.05;1.45;;;;;;;;;;5044221;28;20025;-73
2021/06/02 07:06:50;;;;;;;3.67;1.50;;;;;;;;;;5019741;28;20041;-74
2021/06/02 07:09:16;;;;;;;10.80;2.03;;;;;;;;;;5031004;28;20396;-74
2021/06/02 07:11:43;;;;;;;4.93;1.80;;;;;;;;;;5031319;28;20095;-73
2021/06/02 07:14:09;;;;;;;3.17;1.50;;;;;;;;;;5023982;28;20030;-74
2021/06/02 07:16:36;;;;;;;5.75;1.90;;;;;;;;;;5013513;28;20014;-75
2021/06/02 07:19:02;;;;;;;4.32;2.53;;;;;;;;;;5027460;28;20039;-75
2021/06/02 07:21:27;;;;;;;3.92;1.60;;;;;;;;;;5041128;28;20093;-74
2021/06/02 07:23:52;;;;;;;4.72;1.63;;;;;;;;;;5033156;28;20554;-74
2021/06/02 07:26:18;;;;;;;3.85;1.50;;;;;;;;;;5034686;28;20347;-74
2021/06/02 07:28:43;;;;;;;3.67;1.67;;;;;;;;;;5028748;28;20029;-75
2021/06/02 07:31:09;;;;;;;5.10;1.60;;;;;;;;;;5033712;28;20422;-74
2021/06/02 07:33:35;;;;;;;3.70;1.63;;;;;;;;;;5027526;28;20021;-74
2021/06/02 07:36:01;;;;;;;5.25;1.95;;;;;;;;;;5021575;28;20042;-76
2021/06/02 07:38:27;;;;;;;6.55;1.50;;;;;;;;;;5042728;28;20009;-73
2021/06/02 07:40:52;;;;;;;3.80;1.50;;;;;;;;;;5032534;28;20044;-73
2021/06/02 07:43:18;;;;;;;3.38;1.58;;;;;;;;;;5036953;28;20052;-74
2021/06/02 07:45:43;;;;;;;4.22;1.60;;;;;;;;;;5036488;28;20040;-74
2021/06/02 07:48:09;;;;;;;3.45;1.60;;;;;;;;;;5040517;28;20424;-74
2021/06/02 07:50:34;;;;;;;4.30;1.63;;;;;;;;;;5028404;28;20025;-72
2021/06/02 07:52:59;;;;;;;8.65;1.77;;;;;;;;;;5029048;28;20056;-70
2021/06/02 07:55:25;;;;;;;5.15;1.65;;;;;;;;;;5021338;28;20144;-70
2021/06/02 07:57:50;;;;;;;3.53;1.80;;;;;;;;;;5029236;28;20097;-70
2021/06/02 08:00:16;;;;;;;5.40;1.55;;;;;;;;;;5030643;28;20030;-71
2021/06/02 08:02:41;;;;;;;3.63;1.50;;;;;;;;;;5029370;28;20069;-70
2021/06/02 08:05:07;;;;;;;5.25;1.33;;;;;;;;;;5028032;28;20133;-68
2021/06/02 08:07:32;;;;;;;2.80;1.30;;;;;;;;;;5029589;28;20064;-68
2021/06/02 08:09:58;;;;;;;3.95;1.60;;;;;;;;;;5023072;28;20453;-68
2021/06/02 08:12:23;;;;;;;3.80;1.40;;;;;;;;;;5022179;28;20018;-68
2021/06/02 08:14:48;;;;;;;3.75;1.58;;;;;;;;;;5024151;28;20414;-68
2021/06/02 08:17:14;;;;;;;5.03;1.65;;;;;;;;;;5028533;28;20055;-68
2021/06/02 08:19:39;;;;;;;2.50;1.25;;;;;;;;;;5044834;28;20041;-68
2021/06/02 08:22:05;;;;;;;4.82;1.67;;;;;;;;;;5037398;28;20021;-70
2021/06/02 08:24:30;;;;;;;4.43;1.35;;;;;;;;;;5031101;28;20041;-70
2021/06/02 08:26:56;;;;;;;3.78;1.40;;;;;;;;;;5030470;28;20401;-68
2021/06/02 08:29:21;;;;;;;4.75;1.63;;;;;;;;;;5029006;28;20421;-70
2021/06/02 08:31:46;;;;;;;4.88;1.58;;;;;;;;;;5025984;28;20044;-71
2021/06/02 08:34:12;;;;;;;8.38;1.60;;;;;;;;;;5031026;28;20026;-72
2021/06/02 08:36:37;;;;;;;3.60;1.40;;;;;;;;;;5032630;28;20022;-71
2021/06/02 08:39:05;;;;;;;3.72;1.70;;;;;;;;;;5030319;28;20417;-71
2021/06/02 08:41:30;;;;;;;3.38;1.33;;;;;;;;;;5027958;28;20030;-70
2021/06/02 08:43:56;;;;;;;5.00;1.67;;;;;;;;;;5027221;28;20040;-71
2021/06/02 08:46:21;;;;;;;4.03;1.58;;;;;;;;;;5030417;28;20014;-71
2021/06/02 08:48:49;;;;;;;5.85;1.77;;;;;;;;;;5024928;28;20039;-72
2021/06/02 08:51:15;;;;;;;3.40;1.45;;;;;;;;;;5020805;28;20068;-70
2021/06/02 08:53:41;;;;;;;4.40;1.60;;;;;;;;;;5024047;28;20027;-71
2021/06/02 08:56:06;;;;;;;5.05;1.80;;;;;;;;;;5020063;28;20140;-71
2021/06/02 08:58:32;;;;;;;3.30;1.60;;;;;;;;;;5019151;28;20319;-71
2021/06/02 09:00:57;;;;;;;4.90;1.60;;;;;;;;;;5028568;28;20069;-71
2021/06/02 09:03:23;;;;;;;3.85;1.80;;;;;;;;;;5019634;28;20049;-71
2021/06/02 09:05:48;;;;;;;3.75;1.60;;;;;;;;;;5029998;28;20034;-71
2021/06/02 09:08:14;;;;;;;7.82;1.83;;;;;;;;;;5042285;28;20082;-71
2021/06/02 09:10:40;;;;;;;3.85;1.65;;;;;;;;;;5023205;28;20025;-70
2021/06/02 09:13:19;;;;;;;3.17;1.55;;;;;;;;;;5020554;28;20104;-72
2021/06/02 09:15:45;;;;;;;6.32;1.90;;;;;;;;;;5018052;28;20044;-69
2021/06/02 09:18:16;;;;;;;5.15;1.52;;;;;;;;;;5021646;28;20030;-70
2021/06/02 09:20:44;;;;;;;4.28;1.92;;;;;;;;;;5020438;28;20029;-70
2021/06/02 09:23:32;;;;;;;5.80;1.50;;;;;;;;;;5039583;28;20026;-72
2021/06/02 09:26:23;;;;;;;4.28;1.67;;;;;;;;;;5029772;28;20026;-70
2021/06/02 09:28:57;;;;;;;3.53;1.63;;;;;;;;;;5017559;28;20270;-70
2021/06/02 09:31:43;;;;;;;4.18;1.77;;;;;;;;;;5028433;28;20032;-70
2021/06/02 09:34:21;;;;;;;3.42;1.55;;;;;;;;;;5021986;28;20029;-69
2021/06/02 09:36:48;;;;;;;4.97;1.77;;;;;;;;;;5030489;28;20033;-69
2021/06/02 09:39:14;;;;;;;4.65;1.92;;;;;;;;;;5018197;28;20026;-70
2021/06/02 09:41:41;;;;;;;3.97;1.60;;;;;;;;;;5021368;28;20026;-69
2021/06/02 09:44:19;;;;;;;4.80;1.85;;;;;;;;;;5020422;28;20029;-69
2021/06/02 09:47:05;;;;;;;3.70;1.70;;;;;;;;;;5026100;28;20449;-68
2021/06/02 09:49:44;;;;;;;4.85;2.10;;;;;;;;;;5032029;28;20444;-67
2021/06/02 09:52:10;;;;;;;4.88;1.90;;;;;;;;;;5028677;28;20029;-67
2021/06/02 09:54:35;;;;;;;4.70;1.83;;;;;;;;;;5034057;28;20453;-68
2021/06/02 09:57:09;;;;;;;4.15;1.98;;;;;;;;;;5025411;28;20025;-68
2021/06/02 09:59:34;;;;;;;3.67;1.50;;;;;;;;;;5025237;28;20101;-68
2021/06/02 10:02:00;;;;;;;3.47;1.70;;;;;;;;;;5035185;28;20634;-70
2021/06/02 10:04:38;;;;;;;3.65;1.90;;;;;;;;;;5033914;28;20029;-71
2021/06/02 10:07:16;;;;;;;4.53;1.90;;;;;;;;;;5031747;28;20421;-67
2021/06/02 10:09:43;;;;;;;5.63;1.63;;;;;;;;;;5034968;28;20025;-67
2021/06/02 10:12:08;;;;;;;5.25;2.08;;;;;;;;;;5025947;28;20039;-66
2021/06/02 10:14:34;;;;;;;5.35;1.90;;;;;;;;;;5021863;28;20378;-67
2021/06/02 10:17:00;;;;;;;4.63;2.03;;;;;;;;;;5025731;28;20087;-65
2021/06/02 10:19:40;;;;;;;4.10;1.70;;;;;;;;;;5025345;28;20478;-65
2021/06/02 10:22:17;;;;;;;3.70;1.85;;;;;;;;;;5027203;28;20033;-66
2021/06/02 10:24:42;;;;;;;4.32;1.80;;;;;;;;;;5038182;28;20112;-67
2021/06/02 10:27:08;;;;;;;3.25;1.70;;;;;;;;;;5021905;28;20148;-66
2021/06/02 10:29:33;;;;;;;4.07;1.95;;;;;;;;;;5020988;28;20033;-66
2021/06/02 10:31:58;;;;;;;3.47;1.58;;;;;;;;;;5020683;28;20029;-65
2021/06/02 10:34:24;;;;;;;4.10;1.80;;;;;;;;;;5019734;28;20032;-65
2021/06/02 10:36:49;;;;;;;5.10;1.83;;;;;;;;;;5036697;28;20032;-66
2021/06/02 10:39:15;;;;;;;5.70;2.00;;;;;;;;;;5028516;28;20033;-66
2021/06/02 10:41:42;;;;;;;4.05;1.98;;;;;;;;;;5021391;28;20028;-66
2021/06/02 10:44:09;;;;;;;4.13;2.00;;;;;;;;;;5013351;28;20778;-66
2021/06/02 10:46:35;;;;;;;8.75;2.15;;;;;;;;;;5025114;28;20509;-66
2021/06/02 10:49:01;;;;;;;4.97;2.25;;;;;;;;;;5016544;28;20057;-66
2021/06/02 10:51:47;;;;;;;4.45;1.98;;;;;;;;;;5022829;28;20040;-66
2021/06/02 10:54:14;;;;;;;4.60;2.03;;;;;;;;;;5020981;28;20037;-66
2021/06/02 10:56:41;;;;;;;4.35;1.77;;;;;;;;;;5027802;28;20045;-66
2021/06/02 10:59:25;;;;;;;4.90;2.03;;;;;;;;;;5022465;28;20030;-66
2021/06/02 11:02:22;;;;;;;7.47;2.22;;;;;;;;;;5024182;28;20030;-65
2021/06/02 11:05:17;;;;;;;4.13;1.80;;;;;;;;;;4976297;28;20052;-65
2021/06/02 11:07:52;;;;;;;4.45;1.88;;;;;;;;;;5005040;28;20356;-65
2021/06/02 11:10:17;;;;;;;5.20;2.10;;;;;;;;;;5020238;28;20480;-65
2021/06/02 11:13:01;;;;;;;6.32;2.17;;;;;;;;;;5024757;28;20042;-65
2021/06/02 11:15:43;;;;;;;4.78;2.30;;;;;;;;;;5024221;28;20100;-65
2021/06/02 11:18:20;;;;;;;5.20;2.20;;;;;;;;;;5031923;28;20381;-65
2021/06/02 11:20:49;;;;;;;5.30;2.33;;;;;;;;;;5030953;28;20083;-65
2021/06/02 11:23:34;;;;;;;4.25;2.10;;;;;;;;;;5029994;28;20041;-65
2021/06/02 11:26:18;;;;;;;5.15;2.00;;;;;;;;;;5041948;28;20040;-65
2021/06/02 11:28:44;;;;;;;5.30;1.88;;;;;;;;;;5024830;28;20037;-65
2021/06/02 11:31:20;;;;;;;4.47;1.90;;;;;;;;;;5028838;28;20041;-65
2021/06/02 11:33:45;;;;;;;4.70;1.75;;;;;;;;;;5021805;28;20029;-65
2021/06/02 11:36:12;;;;;;;5.68;2.20;;;;;;;;;;5032567;28;20386;-65
2021/06/02 11:38:38;;;;;;;4.70;2.25;;;;;;;;;;5018290;28;20029;-65
2021/06/02 11:41:04;;;;;;;4.80;2.10;;;;;;;;;;5022980;28;20030;-65
2021/06/02 11:43:29;;;;;;;4.38;2.15;;;;;;;;;;5020662;28;20034;-65
2021/06/02 11:45:55;;;;;;;4.70;2.30;;;;;;;;;;5033613;28;20023;-65
2021/06/02 11:48:22;;;;;;;4.50;1.83;;;;;;;;;;5032069;28;20033;-64
2021/06/02 11:50:47;;;;;;;7.43;1.90;;;;;;;;;;5027973;28;20541;-65
2021/06/02 11:53:12;;;;;;;5.05;2.00;;;;;;;;;;5019386;28;20101;-65
2021/06/02 11:55:39;;;;;;;4.65;1.88;;;;;;;;;;5022920;28;20466;-64
2021/06/02 11:58:04;;;;;;;8.15;2.10;;;;;;;;;;5020511;28;20033;-64
2021/06/02 12:00:30;;;;;;;3.95;1.92;;;;;;;;;;5024553;28;20102;-64
2021/06/02 12:02:57;;;;;;;6.20;2.00;;;;;;;;;;5022069;28;20052;-64
2021/06/02 12:05:27;;;;;;;6.25;1.77;;;;;;;;;;5035518;28;20072;-64
2021/06/02 12:08:00;;;;;;;4.65;2.20;;;;;;;;;;5030821;28;20026;-64
2021/06/02 12:10:33;;;;;;;5.25;2.20;;;;;;;;;;5035048;28;20022;-64
2021/06/02 12:12:59;;;;;;;5.63;1.80;;;;;;;;;;5042098;28;20025;-64
2021/06/02 12:15:25;;;;;;;5.80;1.80;;;;;;;;;;5029450;28;20052;-64
2021/06/02 12:17:51;;;;;;;3.97;1.92;;;;;;;;;;5020493;28;20470;-64
2021/06/02 12:20:18;;;;;;;4.80;1.98;;;;;;;;;;5016539;28;20026;-65
2021/06/02 12:22:44;;;;;;;10.27;2.28;;;;;;;;;;5020317;28;20018;-66
2021/06/02 12:25:15;;;;;;;5.15;1.90;;;;;;;;;;5021409;28;20505;-66
2021/06/02 12:27:41;;;;;;;4.55;2.00;;;;;;;;;;5022310;28;20048;-66
2021/06/02 12:30:08;;;;;;;6.25;1.88;;;;;;;;;;5028593;28;20458;-66
2021/06/02 12:32:48;;;;;;;5.93;1.80;;;;;;;;;;5024703;28;20040;-66
2021/06/02 12:35:33;;;;;;;4.28;1.70;;;;;;;;;;5021568;28;20025;-66
2021/06/02 12:38:20;;;;;;;3.72;1.90;;;;;;;;;;5037361;28;20017;-66
2021/06/02 12:40:49;;;;;;;3.63;2.10;;;;;;;;;;5016658;28;20034;-66
2021/06/02 12:43:22;;;;;;;4.40;1.90;;;;;;;;;;5024254;28;20030;-66
2021/06/02 12:45:48;;;;;;;4.53;1.90;;;;;;;;;;5024137;28;20034;-66
2021/06/02 12:48:29;;;;;;;9.25;2.40;;;;;;;;;;5035151;28;20024;-66
2021/06/02 12:50:54;;;;;;;6.90;2.10;;;;;;;;;;5030616;28;20108;-66
2021/06/02 12:53:19;;;;;;;6.95;2.30;;;;;;;;;;5034505;28;20367;-66
2021/06/02 12:55:46;;;;;;;7.70;1.83;;;;;;;;;;5047379;28;20049;-66
2021/06/02 12:58:16;;;;;;;6.18;2.00;;;;;;;;;;5046774;28;20029;-66
2021/06/02 13:00:43;;;;;;;7.93;2.53;;;;;;;;;;5017771;28;20046;-66
2021/06/02 13:03:12;;;;;;;5.70;1.92;;;;;;;;;;5038688;28;20059;-66
2021/06/02 13:05:37;;;;;;;5.95;2.50;;;;;;;;;;5025880;28;20026;-66
2021/06/02 13:08:03;;;;;;;16.88;2.47;;;;;;;;;;5020076;28;20530;-65
2021/06/02 13:10:29;;;;;;;4.57;2.00;;;;;;;;;;5017044;28;20025;-65
2021/06/02 13:12:57;;;;;;;3.90;2.22;;;;;;;;;;5019878;28;20091;-65
2021/06/02 13:15:27;;;;;;;4.93;2.20;;;;;;;;;;5021082;28;20108;-65
2021/06/02 13:17:52;;;;;;;4.60;2.28;;;;;;;;;;5028139;28;20381;-66
2021/06/02 13:20:28;;;;;;;7.20;1.90;;;;;;;;;;5031814;28;20021;-65
2021/06/02 13:23:12;;;;;;;6.32;2.22;;;;;;;;;;5023979;28;20129;-65
2021/06/02 13:25:38;;;;;;;5.15;2.00;;;;;;;;;;5034864;28;20048;-65
2021/06/02 13:28:07;;;;;;;5.22;2.10;;;;;;;;;;5028028;28;20041;-66
2021/06/02 13:30:36;;;;;;;5.97;2.10;;;;;;;;;;5018202;28;20421;-66
2021/06/02 13:33:01;;;;;;;3.42;1.70;;;;;;;;;;5047306;28;20021;-66
2021/06/02 13:35:26;;;;;;;6.30;1.92;;;;;;;;;;5030079;28;20028;-66
2021/06/02 13:37:52;;;;;;;5.28;2.10;;;;;;;;;;5044545;28;20029;-66
2021/06/02 13:40:18;;;;;;;4.63;2.08;;;;;;;;;;5033165;28;20060;-66
2021/06/02 13:43:03;;;;;;;3.75;1.98;;;;;;;;;;5020268;28;20029;-66
2021/06/02 13:45:46;;;;;;;4.38;1.95;;;;;;;;;;5020904;28;20076;-66
2021/06/02 13:48:33;;;;;;;4.68;1.77;;;;;;;;;;5022768;28;20035;-66
2021/06/02 13:51:20;;;;;;;3.72;1.83;;;;;;;;;;5030759;28;20107;-66
2021/06/02 13:54:04;;;;;;;3.63;2.00;;;;;;;;;;5036955;28;20029;-66
2021/06/02 13:56:30;;;;;;;4.13;2.00;;;;;;;;;;5031850;28;20025;-66
2021/06/02 13:59:05;;;;;;;4.13;2.05;;;;;;;;;;5016181;28;20381;-66
2021/06/02 14:01:31;;;;;;;6.05;1.90;;;;;;;;;;5032515;28;20056;-66
2021/06/02 14:03:56;;;;;;;3.90;1.80;;;;;;;;;;5037753;28;20104;-66
2021/06/02 14:06:21;;;;;;;4.38;1.90;;;;;;;;;;5030356;28;20112;-66
2021/06/02 14:08:50;;;;;;;4.43;2.00;;;;;;;;;;5025854;28;20418;-66
2021/06/02 14:11:25;;;;;;;5.97;1.80;;;;;;;;;;5035026;28;20606;-66
2021/06/02 14:13:50;;;;;;;4.18;2.15;;;;;;;;;;5016749;28;20145;-66
2021/06/02 14:16:20;;;;;;;6.75;2.38;;;;;;;;;;5032333;28;20112;-66
2021/06/02 14:18:46;;;;;;;4.07;2.00;;;;;;;;;;5034853;28;20429;-66
2021/06/02 14:21:11;;;;;;;5.63;1.63;;;;;;;;;;5040446;28;20025;-66
2021/06/02 14:23:37;;;;;;;6.05;1.90;;;;;;;;;;5019348;28;20041;-66
2021/06/02 14:26:02;;;;;;;3.30;1.83;;;;;;;;;;5034164;28;20045;-66
2021/06/02 14:28:28;;;;;;;4.95;2.00;;;;;;;;;;5032514;28;20022;-66
2021/06/02 14:30:53;;;;;;;4.47;2.10;;;;;;;;;;5027642;28;20115;-66
2021/06/02 14:33:18;;;;;;;4.50;1.70;;;;;;;;;;5029387;28;20029;-66
2021/06/02 14:35:44;;;;;;;4.95;1.75;;;;;;;;;;5033649;28;20030;-66
2021/06/02 14:38:09;;;;;;;4.47;2.00;;;;;;;;;;5029758;28;20056;-66
2021/06/02 14:40:36;;;;;;;5.05;1.90;;;;;;;;;;5027926;28;20028;-66
2021/06/02 14:43:01;;;;;;;5.65;2.05;;;;;;;;;;5029320;28;20037;-66
2021/06/02 14:45:26;;;;;;;3.45;1.80;;;;;;;;;;5027963;28;20037;-66
2021/06/02 14:47:52;;;;;;;4.85;1.98;;;;;;;;;;5022593;28;20033;-66
2021/06/02 14:50:18;;;;;;;4.35;1.88;;;;;;;;;;5021988;28;20052;-66
2021/06/02 14:52:44;;;;;;;3.50;1.73;;;;;;;;;;5033014;28;20029;-66
2021/06/02 14:55:09;;;;;;;4.85;1.95;;;;;;;;;;5018496;28;20041;-66
2021/06/02 14:57:36;;;;;;;7.45;1.80;;;;;;;;;;5037530;28;20017;-66
2021/06/02 15:00:02;;;;;;;4.93;1.90;;;;;;;;;;5037363;28;20033;-66
2021/06/02 15:02:27;;;;;;;4.18;1.83;;;;;;;;;;5026281;28;20042;-66
2021/06/02 15:04:53;;;;;;;5.70;1.88;;;;;;;;;;5023606;28;20060;-66
2021/06/02 15:07:18;;;;;;;4.03;1.73;;;;;;;;;;5013422;28;20045;-66
2021/06/02 15:09:43;;;;;;;5.97;1.77;;;;;;;;;;5013219;28;20061;-66
2021/06/02 15:12:10;;;;;;;6.57;1.95;;;;;;;;;;5017209;28;20112;-66
2021/06/02 15:14:35;;;;;;;2.80;1.73;;;;;;;;;;5025493;28;20033;-66
2021/06/02 15:17:01;;;;;;;4.15;2.10;;;;;;;;;;5024208;28;20394;-66
2021/06/02 15:19:26;;;;;;;5.82;2.10;;;;;;;;;;5028733;28;20340;-66